createdAt,value
2018-07-26T00:00:36.629Z,23.90
2018-07-26T00:03:05.004Z,23.80
2018-07-26T00:05:33.372Z,23.80
2018-07-26T00:08:01.962Z,23.70
2018-07-26T00:10:30.510Z,23.70
2018-07-26T00:12:59.036Z,23.60
2018-07-26T00:15:27.639Z,23.60
2018-07-26T00:17:56.092Z,23.50
2018-07-26T00:20:24.682Z,23.50
2018-07-26T00:22:53.196Z,23.40
2018-07-26T00:25:21.769Z,23.30
2018-07-26T00:27:50.451Z,23.30
2018-07-26T00:30:19.005Z,23.30
2018-07-26T00:32:47.350Z,23.20
2018-07-26T00:35:15.690Z,23.20
2018-07-26T00:37:44.029Z,23.20
2018-07-26T00:40:12.419Z,23.10
2018-07-26T00:42:40.776Z,23.20
2018-07-26T00:45:09.124Z,23.10
2018-07-26T00:47:37.463Z,23.10
2018-07-26T00:50:05.864Z,23.10
2018-07-26T00:52:34.250Z,23.10
2018-07-26T00:55:02.667Z,23.10
2018-07-26T00:57:31.012Z,23.10
2018-07-26T00:59:59.345Z,23.10
2018-07-26T01:02:27.760Z,23.00
2018-07-26T01:04:56.119Z,23.00
2018-07-26T01:07:24.569Z,23.00
2018-07-26T01:09:52.910Z,23.00
2018-07-26T01:12:21.294Z,23.00
2018-07-26T01:14:49.932Z,22.90
2018-07-26T01:17:18.726Z,22.90
2018-07-26T01:19:47.092Z,22.90
2018-07-26T01:22:15.436Z,22.80
2018-07-26T01:24:43.779Z,22.80
2018-07-26T01:27:12.155Z,22.80
2018-07-26T01:29:40.512Z,22.70
2018-07-26T01:32:09.018Z,22.60
2018-07-26T01:34:37.379Z,22.60
2018-07-26T01:37:06.036Z,22.60
2018-07-26T01:39:35.362Z,22.50
2018-07-26T01:42:03.749Z,22.50
2018-07-26T01:44:32.200Z,22.50
2018-07-26T01:47:00.682Z,22.40
2018-07-26T01:49:29.091Z,22.40
2018-07-26T01:51:57.502Z,22.40
2018-07-26T01:56:54.011Z,22.30
2018-07-26T01:59:22.383Z,22.30
2018-07-26T02:01:50.830Z,22.20
2018-07-26T02:04:19.199Z,22.20
2018-07-26T02:06:47.642Z,22.20
2018-07-26T02:09:16.027Z,22.10
2018-07-26T02:11:44.417Z,22.10
2018-07-26T02:14:18.073Z,22.00
2018-07-26T02:16:46.464Z,22.00
2018-07-26T02:19:14.849Z,22.00
2018-07-26T02:21:43.238Z,21.90
2018-07-26T02:26:39.655Z,21.80
2018-07-26T02:29:08.029Z,21.80
2018-07-26T02:31:36.400Z,21.70
2018-07-26T02:34:04.908Z,21.60
2018-07-26T02:36:33.255Z,21.60
2018-07-26T02:39:01.631Z,21.50
2018-07-26T02:41:30.028Z,21.40
2018-07-26T02:43:58.418Z,21.40
2018-07-26T02:46:26.765Z,21.40
2018-07-26T02:48:55.115Z,21.30
2018-07-26T02:51:23.508Z,21.30
2018-07-26T02:53:51.869Z,21.30
2018-07-26T02:56:20.246Z,21.20
2018-07-26T02:58:48.664Z,21.20
2018-07-26T03:01:17.020Z,21.10
2018-07-26T03:03:45.384Z,21.10
2018-07-26T03:06:13.780Z,21.10
2018-07-26T03:08:42.244Z,21.00
2018-07-26T03:13:38.724Z,21.00
2018-07-26T03:16:07.098Z,21.00
2018-07-26T03:18:35.534Z,20.90
2018-07-26T03:21:03.999Z,20.90
2018-07-26T03:23:32.296Z,20.80
2018-07-26T03:26:00.680Z,20.80
2018-07-26T03:28:29.084Z,20.80
2018-07-26T03:30:58.135Z,20.70
2018-07-26T03:33:27.624Z,20.70
2018-07-26T03:35:55.985Z,20.60
2018-07-26T03:38:24.365Z,20.60
2018-07-26T03:40:52.707Z,20.50
2018-07-26T03:43:21.083Z,20.50
2018-07-26T03:45:49.421Z,20.50
2018-07-26T03:48:18.563Z,20.50
2018-07-26T03:50:46.930Z,20.50
2018-07-26T03:53:15.400Z,20.40
2018-07-26T03:55:50.464Z,20.40
2018-07-26T03:58:18.929Z,20.40
2018-07-26T04:00:47.296Z,20.40
2018-07-26T04:03:15.739Z,20.30
2018-07-26T04:05:44.070Z,20.30
2018-07-26T04:08:12.413Z,20.30
2018-07-26T04:10:40.785Z,20.20
2018-07-26T04:13:09.167Z,20.30
2018-07-26T04:15:37.916Z,20.30
2018-07-26T04:18:06.926Z,20.30
2018-07-26T04:20:35.704Z,20.30
2018-07-26T04:23:04.047Z,20.30
2018-07-26T04:25:32.514Z,20.30
2018-07-26T04:28:01.582Z,20.40
2018-07-26T04:30:29.987Z,20.40
2018-07-26T04:32:58.398Z,20.50
2018-07-26T04:35:26.766Z,20.60
2018-07-26T04:37:55.733Z,20.60
2018-07-26T04:40:24.089Z,20.70
2018-07-26T04:42:52.470Z,20.80
2018-07-26T04:45:20.841Z,20.90
2018-07-26T04:47:49.208Z,21.00
2018-07-26T04:50:17.596Z,21.10
2018-07-26T04:52:46.014Z,21.10
2018-07-26T04:55:15.044Z,21.20
2018-07-26T04:57:43.660Z,21.30
2018-07-26T05:00:12.076Z,21.30
2018-07-26T05:02:40.763Z,21.40
2018-07-26T05:05:09.212Z,21.50
2018-07-26T05:07:37.578Z,21.50
2018-07-26T05:10:06.131Z,21.60
2018-07-26T05:12:34.525Z,21.70
2018-07-26T05:15:02.961Z,21.80
2018-07-26T05:17:31.320Z,21.90
2018-07-26T05:19:59.676Z,22.00
2018-07-26T05:22:28.106Z,22.00
2018-07-26T05:24:56.495Z,22.10
2018-07-26T05:27:24.904Z,22.10
2018-07-26T05:29:53.337Z,22.20
2018-07-26T05:32:21.753Z,22.40
2018-07-26T05:34:50.159Z,22.70
2018-07-26T05:37:18.611Z,23.00
2018-07-26T05:39:47.795Z,23.30
2018-07-26T05:42:16.212Z,23.60
2018-07-26T05:44:44.708Z,23.90
2018-07-26T05:47:13.326Z,24.10
2018-07-26T05:49:41.712Z,24.30
2018-07-26T05:52:10.090Z,24.60
2018-07-26T05:54:38.479Z,24.60
2018-07-26T05:57:06.904Z,24.50
2018-07-26T05:59:35.271Z,24.40
2018-07-26T06:02:03.853Z,24.30
2018-07-26T06:04:32.252Z,24.00
2018-07-26T06:07:00.629Z,23.90
2018-07-26T06:09:29.029Z,23.90
2018-07-26T06:11:58.418Z,23.90
2018-07-26T06:14:26.799Z,23.90
2018-07-26T06:16:55.144Z,24.20
2018-07-26T06:19:23.499Z,24.60
2018-07-26T06:21:51.943Z,25.10
2018-07-26T06:24:20.274Z,25.60
2018-07-26T06:26:48.649Z,25.90
2018-07-26T06:29:16.974Z,26.20
2018-07-26T06:31:45.324Z,26.20
2018-07-26T06:34:13.706Z,26.60
2018-07-26T06:36:42.045Z,27.00
2018-07-26T06:39:12.026Z,27.10
2018-07-26T06:41:40.604Z,27.20
2018-07-26T06:44:08.991Z,27.60
2018-07-26T06:46:37.437Z,27.80
2018-07-26T06:49:06.261Z,27.90
2018-07-26T06:51:34.618Z,28.20
2018-07-26T06:54:03.058Z,28.60
2018-07-26T06:56:31.511Z,28.70
2018-07-26T06:58:59.974Z,29.10
2018-07-26T07:01:28.383Z,28.90
2018-07-26T07:03:56.756Z,29.10
2018-07-26T07:06:25.152Z,29.60
2018-07-26T07:08:53.537Z,29.70
2018-07-26T07:11:21.900Z,30.00
2018-07-26T07:13:50.280Z,30.10
2018-07-26T07:16:18.636Z,30.20
2018-07-26T07:18:46.995Z,30.30
2018-07-26T07:21:15.784Z,30.60
2018-07-26T07:23:44.159Z,30.70
2018-07-26T07:26:12.545Z,31.00
2018-07-26T07:28:40.902Z,30.80
2018-07-26T07:31:09.282Z,30.70
2018-07-26T07:33:37.648Z,30.60
2018-07-26T07:36:06.062Z,30.70
2018-07-26T07:38:34.392Z,31.10
2018-07-26T07:41:02.795Z,31.50
2018-07-26T07:43:31.136Z,31.50
2018-07-26T07:45:59.477Z,31.80
2018-07-26T07:48:27.921Z,31.90
2018-07-26T07:50:56.274Z,32.10
2018-07-26T07:53:24.682Z,32.40
2018-07-26T07:55:53.059Z,32.20
2018-07-26T07:58:21.665Z,32.00
2018-07-26T08:00:50.070Z,32.50
2018-07-26T08:03:18.492Z,32.60
2018-07-26T08:05:46.848Z,32.60
2018-07-26T08:08:15.223Z,32.80
2018-07-26T08:10:43.603Z,33.20
2018-07-26T08:13:11.962Z,33.20
2018-07-26T08:15:40.383Z,33.20
2018-07-26T08:18:08.748Z,33.50
2018-07-26T08:20:37.104Z,33.80
2018-07-26T08:23:05.568Z,33.50
2018-07-26T08:25:33.921Z,33.40
2018-07-26T08:28:02.362Z,33.60
2018-07-26T08:30:30.722Z,33.30
2018-07-26T08:32:59.101Z,33.60
2018-07-26T08:35:27.466Z,33.90
2018-07-26T08:37:55.840Z,34.40
2018-07-26T08:40:24.206Z,34.60
2018-07-26T08:42:52.579Z,34.40
2018-07-26T08:45:20.935Z,34.70
2018-07-26T08:47:49.291Z,34.80
2018-07-26T08:50:17.652Z,35.40
2018-07-26T08:52:46.024Z,35.00
2018-07-26T08:57:42.459Z,35.00
2018-07-26T09:00:10.837Z,35.10
2018-07-26T09:02:39.392Z,35.30
2018-07-26T09:05:08.613Z,35.60
2018-07-26T09:07:37.343Z,35.70
2018-07-26T09:10:06.160Z,36.30
2018-07-26T09:12:34.948Z,36.70
2018-07-26T09:15:03.363Z,37.10
2018-07-26T09:17:38.119Z,37.40
2018-07-26T09:20:06.631Z,37.30
2018-07-26T09:22:35.084Z,37.50
2018-07-26T09:25:03.490Z,37.60
2018-07-26T09:27:31.875Z,37.30
2018-07-26T09:30:00.475Z,36.70
2018-07-26T09:32:33.558Z,36.40
2018-07-26T09:35:01.920Z,36.30
2018-07-26T09:37:30.240Z,35.90
2018-07-26T09:39:58.606Z,36.00
2018-07-26T09:42:26.949Z,36.30
2018-07-26T09:44:55.323Z,36.50
2018-07-26T09:47:23.783Z,36.60
2018-07-26T09:49:52.184Z,36.70
2018-07-26T09:52:20.514Z,36.70
2018-07-26T09:57:16.982Z,36.40
2018-07-26T09:59:45.329Z,36.20
2018-07-26T10:02:13.656Z,36.50
2018-07-26T10:04:42.028Z,37.00
2018-07-26T10:07:10.364Z,36.90
2018-07-26T10:09:38.781Z,37.00
2018-07-26T10:12:07.159Z,36.50
2018-07-26T10:14:35.511Z,36.20
2018-07-26T10:17:03.886Z,36.50
2018-07-26T10:19:32.280Z,36.60
2018-07-26T10:22:00.635Z,36.60
2018-07-26T10:24:29.003Z,36.90
2018-07-26T10:26:57.367Z,36.70
2018-07-26T10:29:25.751Z,36.50
2018-07-26T10:31:54.122Z,36.40
2018-07-26T10:34:22.494Z,36.60
2018-07-26T10:36:50.881Z,36.60
2018-07-26T10:39:19.273Z,36.80
2018-07-26T10:41:47.643Z,37.20
2018-07-26T10:44:16.046Z,37.70
2018-07-26T10:46:44.425Z,38.00
2018-07-26T10:49:12.821Z,38.30
2018-07-26T10:51:41.201Z,38.30
2018-07-26T10:54:09.515Z,38.70
2018-07-26T10:56:37.890Z,39.30
2018-07-26T10:59:06.216Z,39.00
2018-07-26T11:01:34.547Z,38.60
2018-07-26T11:04:04.398Z,38.20
2018-07-26T11:06:34.069Z,37.60
2018-07-26T11:09:03.052Z,37.30
2018-07-26T11:11:31.541Z,37.50
2018-07-26T11:14:00.129Z,37.40
2018-07-26T11:16:28.839Z,37.00
2018-07-26T11:18:58.304Z,37.50
2018-07-26T11:21:27.222Z,37.50
2018-07-26T11:23:56.096Z,37.80
2018-07-26T11:26:25.614Z,37.60
2018-07-26T11:28:54.772Z,37.90
2018-07-26T11:31:23.319Z,37.90
2018-07-26T11:33:53.093Z,37.60
2018-07-26T11:36:22.022Z,37.80
2018-07-26T11:38:50.524Z,37.50
2018-07-26T11:41:19.538Z,37.40
2018-07-26T11:43:47.906Z,37.20
2018-07-26T11:46:17.186Z,37.10
2018-07-26T11:48:45.605Z,37.20
2018-07-26T11:51:14.284Z,37.80
2018-07-26T11:53:42.644Z,38.20
2018-07-26T11:56:11.247Z,38.70
2018-07-26T11:58:39.845Z,37.60
2018-07-26T12:01:08.361Z,37.50
2018-07-26T12:03:36.894Z,37.70
2018-07-26T12:06:05.698Z,38.20
2018-07-26T12:08:34.372Z,37.90
2018-07-26T12:11:03.352Z,38.50
2018-07-26T12:13:32.283Z,38.80
2018-07-26T12:16:00.630Z,38.40
2018-07-26T12:18:29.385Z,38.00
2018-07-26T12:20:58.458Z,37.50
2018-07-26T12:23:27.303Z,37.80
2018-07-26T12:25:55.862Z,37.50
2018-07-26T12:28:24.230Z,37.70
2018-07-26T12:30:52.735Z,37.60
2018-07-26T12:33:21.615Z,37.90
2018-07-26T12:35:50.037Z,38.00
2018-07-26T12:38:18.706Z,37.60
2018-07-26T12:40:47.150Z,37.30
2018-07-26T12:43:15.618Z,38.00
2018-07-26T12:45:44.061Z,38.30
2018-07-26T12:48:12.521Z,38.50
2018-07-26T12:50:40.882Z,38.90
2018-07-26T12:53:09.337Z,38.60
2018-07-26T12:55:37.839Z,38.60
2018-07-26T12:58:06.381Z,38.50
2018-07-26T13:00:34.883Z,38.00
2018-07-26T13:03:03.262Z,37.70
2018-07-26T13:05:31.639Z,37.70
2018-07-26T13:08:00.045Z,37.50
2018-07-26T13:10:28.506Z,37.50
2018-07-26T13:12:56.933Z,36.90
2018-07-26T13:15:25.322Z,37.20
2018-07-26T13:17:53.643Z,37.10
2018-07-26T13:20:22.036Z,37.50
2018-07-26T13:22:50.390Z,37.50
2018-07-26T13:25:18.797Z,37.50
2018-07-26T13:27:47.208Z,37.40
2018-07-26T13:32:43.676Z,37.20
2018-07-26T13:35:12.319Z,37.10
2018-07-26T13:37:40.648Z,37.50
2018-07-26T13:40:09.123Z,37.80
2018-07-26T13:42:37.531Z,38.40
2018-07-26T13:45:06.441Z,38.00
2018-07-26T13:47:34.881Z,38.00
2018-07-26T13:50:03.353Z,37.90
2018-07-26T13:52:31.750Z,38.00
2018-07-26T13:55:00.835Z,37.70
2018-07-26T13:57:29.352Z,37.80
2018-07-26T13:59:57.991Z,38.30
2018-07-26T14:02:28.587Z,38.40
2018-07-26T14:04:56.999Z,38.00
2018-07-26T14:07:25.528Z,38.20
2018-07-26T14:09:53.959Z,38.00
2018-07-26T14:12:22.333Z,37.70
2018-07-26T14:14:50.746Z,37.50
2018-07-26T14:17:19.203Z,37.90
2018-07-26T14:19:47.681Z,38.00
2018-07-26T14:22:16.128Z,38.00
2018-07-26T14:24:44.790Z,38.30
2018-07-26T14:27:13.210Z,38.00
2018-07-26T14:29:41.525Z,38.20
2018-07-26T14:32:09.898Z,37.70
2018-07-26T14:34:38.259Z,37.80
2018-07-26T14:37:18.593Z,37.80
2018-07-26T14:39:46.973Z,37.90
2018-07-26T14:44:43.455Z,38.10
2018-07-26T14:47:12.002Z,38.30
2018-07-26T14:49:40.356Z,38.30
2018-07-26T14:52:08.842Z,38.20
2018-07-26T14:54:37.271Z,37.90
2018-07-26T14:57:05.751Z,37.90
2018-07-26T14:59:34.258Z,38.00
2018-07-26T15:02:02.616Z,37.90
2018-07-26T15:04:30.992Z,38.00
2018-07-26T15:06:59.469Z,37.80
2018-07-26T15:09:27.948Z,38.10
2018-07-26T15:11:56.375Z,38.10
2018-07-26T15:14:24.783Z,38.00
2018-07-26T15:16:53.122Z,38.10
2018-07-26T15:19:21.841Z,38.40
2018-07-26T15:21:50.226Z,38.00
2018-07-26T15:24:18.580Z,37.50
2018-07-26T15:26:47.054Z,37.70
2018-07-26T15:29:15.474Z,37.60
2018-07-26T15:31:43.900Z,37.90
2018-07-26T15:34:12.362Z,38.00
2018-07-26T15:36:40.769Z,37.60
2018-07-26T15:39:10.148Z,37.50
2018-07-26T15:41:42.634Z,37.60
2018-07-26T15:44:13.949Z,37.50
2018-07-26T15:46:42.422Z,37.50
2018-07-26T15:49:11.243Z,37.30
2018-07-26T15:51:39.627Z,36.90
2018-07-26T15:54:08.048Z,36.70
2018-07-26T15:56:36.447Z,36.60
2018-07-26T15:59:04.874Z,36.50
2018-07-26T16:01:33.300Z,36.40
2018-07-26T16:04:01.853Z,36.50
2018-07-26T16:06:30.435Z,36.30
2018-07-26T16:08:59.097Z,36.20
2018-07-26T16:11:27.591Z,36.00
2018-07-26T16:13:56.674Z,35.90
2018-07-26T16:16:25.086Z,35.50
2018-07-26T16:18:53.564Z,35.40
2018-07-26T16:21:21.898Z,35.40
2018-07-26T16:23:50.287Z,35.20
2018-07-26T16:26:18.788Z,35.10
2018-07-26T16:28:47.183Z,35.10
2018-07-26T16:31:15.668Z,35.10
2018-07-26T16:33:44.058Z,34.90
2018-07-26T16:36:12.408Z,35.00
2018-07-26T16:38:40.805Z,34.80
2018-07-26T16:41:14.258Z,34.80
2018-07-26T16:43:42.688Z,34.80
2018-07-26T16:46:11.180Z,34.90
2018-07-26T16:48:40.288Z,34.80
2018-07-26T16:51:08.823Z,34.80
2018-07-26T16:53:37.314Z,34.60
2018-07-26T16:56:05.701Z,34.70
2018-07-26T16:58:34.166Z,34.50
2018-07-26T17:01:02.526Z,34.40
2018-07-26T17:05:59.118Z,34.30
2018-07-26T17:08:27.510Z,34.30
2018-07-26T17:10:56.011Z,34.30
2018-07-26T17:13:24.474Z,34.30
2018-07-26T17:15:52.975Z,34.20
2018-07-26T17:18:21.319Z,34.20
2018-07-26T17:20:49.726Z,34.20
2018-07-26T17:23:18.228Z,34.20
2018-07-26T17:25:51.660Z,34.10
2018-07-26T17:28:20.285Z,34.00
2018-07-26T17:30:48.728Z,33.90
2018-07-26T17:33:17.226Z,33.90
2018-07-26T17:35:45.673Z,33.90
2018-07-26T17:38:14.021Z,33.80
2018-07-26T17:40:42.659Z,33.70
2018-07-26T17:43:11.221Z,33.70
2018-07-26T17:45:39.883Z,33.60
2018-07-26T17:48:08.427Z,33.60
2018-07-26T17:50:36.795Z,33.50
2018-07-26T17:53:05.303Z,33.40
2018-07-26T17:55:33.747Z,33.40
2018-07-26T17:58:02.207Z,33.30
2018-07-26T18:00:30.702Z,33.20
2018-07-26T18:02:59.133Z,33.20
2018-07-26T18:05:27.514Z,33.10
2018-07-26T18:07:55.969Z,33.10
2018-07-26T18:10:24.420Z,33.10
2018-07-26T18:12:52.816Z,33.00
2018-07-26T18:15:21.255Z,33.00
2018-07-26T18:17:49.762Z,32.90
2018-07-26T18:20:18.203Z,32.80
2018-07-26T18:22:46.939Z,32.70
2018-07-26T18:25:15.308Z,32.60
2018-07-26T18:27:43.802Z,32.50
2018-07-26T18:30:12.178Z,32.50
2018-07-26T18:32:40.628Z,32.40
2018-07-26T18:35:09.128Z,32.30
2018-07-26T18:37:37.564Z,32.20
2018-07-26T18:40:07.084Z,32.20
2018-07-26T18:42:35.520Z,32.10
2018-07-26T18:45:04.442Z,32.00
2018-07-26T18:47:32.798Z,31.90
2018-07-26T18:50:01.176Z,31.80
2018-07-26T18:52:29.631Z,31.70
2018-07-26T18:54:58.141Z,31.60
2018-07-26T18:57:26.555Z,31.50
2018-07-26T18:59:54.954Z,31.40
2018-07-26T19:02:23.387Z,31.30
2018-07-26T19:04:51.874Z,31.20
2018-07-26T19:07:20.303Z,31.10
2018-07-26T19:09:49.064Z,31.00
2018-07-26T19:12:17.487Z,30.90
2018-07-26T19:14:45.876Z,30.80
2018-07-26T19:17:14.329Z,30.70
2018-07-26T19:19:42.738Z,30.60
2018-07-26T19:22:11.217Z,30.40
2018-07-26T19:24:39.636Z,30.30
2018-07-26T19:27:08.108Z,30.20
2018-07-26T19:29:36.520Z,30.10
2018-07-26T19:32:04.949Z,30.00
2018-07-26T19:34:33.348Z,29.90
2018-07-26T19:37:01.798Z,29.80
2018-07-26T19:39:30.240Z,29.70
2018-07-26T19:41:58.678Z,29.60
2018-07-26T19:44:27.128Z,29.50
2018-07-26T19:46:55.557Z,29.30
2018-07-26T19:49:24.115Z,29.20
2018-07-26T19:51:52.560Z,29.10
2018-07-26T19:54:21.008Z,28.90
2018-07-26T19:56:49.412Z,28.80
2018-07-26T19:59:17.889Z,28.60
2018-07-26T20:01:46.350Z,28.50
2018-07-26T20:04:14.818Z,28.40
2018-07-26T20:06:43.299Z,28.30
2018-07-26T20:09:11.882Z,28.20
2018-07-26T20:11:40.554Z,28.10
2018-07-26T20:14:09.275Z,28.00
2018-07-26T20:16:38.507Z,27.90
2018-07-26T20:19:06.919Z,27.80
2018-07-26T20:21:35.397Z,27.80
2018-07-26T20:24:03.812Z,27.70
2018-07-26T20:26:32.252Z,27.60
2018-07-26T20:29:00.700Z,27.50
2018-07-26T20:31:29.112Z,27.30
2018-07-26T20:33:57.532Z,27.20
2018-07-26T20:36:25.896Z,27.10
2018-07-26T20:38:54.320Z,27.00
2018-07-26T20:41:22.654Z,26.90
2018-07-26T20:43:51.132Z,26.80
2018-07-26T20:46:19.570Z,26.70
2018-07-26T20:48:48.404Z,26.70
2018-07-26T20:51:16.743Z,26.60
2018-07-26T20:53:46.389Z,26.50
2018-07-26T20:56:15.113Z,26.40
2018-07-26T20:58:43.581Z,26.30
2018-07-26T21:01:17.677Z,26.20
2018-07-26T21:03:46.040Z,26.20
2018-07-26T21:06:14.447Z,26.10
2018-07-26T21:08:42.772Z,26.00
2018-07-26T21:11:11.262Z,25.90
2018-07-26T21:13:39.851Z,25.80
2018-07-26T21:16:08.258Z,25.70
2018-07-26T21:18:36.670Z,25.70
2018-07-26T21:21:05.074Z,25.60
2018-07-26T21:23:33.445Z,25.50
2018-07-26T21:26:01.837Z,25.40
2018-07-26T21:28:30.221Z,25.30
2018-07-26T21:30:58.577Z,25.30
2018-07-26T21:33:27.019Z,25.20
2018-07-26T21:35:55.470Z,25.10
2018-07-26T21:38:23.879Z,25.00
2018-07-26T21:40:52.327Z,24.90
2018-07-26T21:43:20.878Z,24.80
2018-07-26T21:45:49.219Z,24.70
2018-07-26T21:48:17.555Z,24.70
2018-07-26T21:50:45.952Z,24.60
2018-07-26T21:53:14.321Z,24.50
2018-07-26T21:55:42.658Z,24.50
2018-07-26T21:58:11.024Z,24.40
2018-07-26T22:00:44.740Z,24.30
2018-07-26T22:03:13.139Z,24.20
2018-07-26T22:05:41.552Z,24.20
2018-07-26T22:08:09.898Z,24.10
2018-07-26T22:10:38.390Z,24.00
2018-07-26T22:13:07.463Z,24.00
2018-07-26T22:15:35.944Z,23.90
2018-07-26T22:18:04.395Z,23.80
2018-07-26T22:20:32.868Z,23.80
2018-07-26T22:23:01.254Z,23.70
2018-07-26T22:25:29.590Z,23.70
2018-07-26T22:27:57.929Z,23.60
2018-07-26T22:30:26.329Z,23.60
2018-07-26T22:32:54.782Z,23.50
2018-07-26T22:35:23.175Z,23.50
2018-07-26T22:37:51.511Z,23.50
2018-07-26T22:40:19.971Z,23.40
2018-07-26T22:42:48.326Z,23.30
2018-07-26T22:45:16.681Z,23.30
2018-07-26T22:47:45.092Z,23.30
2018-07-26T22:50:13.587Z,23.20
2018-07-26T22:52:42.138Z,23.20
2018-07-26T22:55:10.540Z,23.10
2018-07-26T22:57:38.879Z,23.00
2018-07-26T23:00:07.474Z,22.90
2018-07-26T23:02:36.023Z,22.80
2018-07-26T23:05:04.858Z,22.70
2018-07-26T23:07:33.329Z,22.70
2018-07-26T23:10:01.835Z,22.60
2018-07-26T23:12:30.177Z,22.50
2018-07-26T23:14:58.550Z,22.40
2018-07-26T23:17:26.904Z,22.40
2018-07-26T23:22:23.447Z,22.40
2018-07-26T23:24:51.829Z,22.30
2018-07-26T23:27:20.410Z,22.30
2018-07-26T23:29:48.925Z,22.30
2018-07-26T23:32:17.280Z,22.20
2018-07-26T23:34:45.648Z,22.20
2018-07-26T23:37:15.854Z,22.10
2018-07-26T23:39:45.138Z,22.00
2018-07-26T23:42:14.403Z,22.00
2018-07-26T23:44:43.036Z,21.90
2018-07-26T23:47:11.385Z,21.90
2018-07-26T23:49:39.728Z,21.80
2018-07-26T23:52:08.470Z,21.80
2018-07-26T23:54:36.839Z,21.80
2018-07-26T23:57:05.231Z,21.70
2018-07-26T23:59:33.696Z,21.70
